Time;durP1;ratioP1;P1;durP2;ratioP2;P2;SDS_P1;SDS_P2;PMS_P1;PMS_P2;Temp;Humidity;BMP_temperature;BMP_pressure;BME280_temperature;BME280_humidity;BME280_pressure;Samples;Min_cycle;Max_cycle;Signal;HPM_P1;HPM_P2
2023/05/03 00:01:12;;;;;;;;;;;22.40;59.10;;;;;;1598341;73;1158;-69
2023/05/03 00:03:14;;;;;;;;;;;22.30;59.10;;;;;;1603291;73;1687;-70
2023/05/03 00:05:16;;;;;;;;;;;22.40;59.10;;;;;;1597874;73;1938;-71
2023/05/03 00:07:18;;;;;;;;;;;22.40;59.20;;;;;;1601973;73;827;-69
2023/05/03 00:09:20;;;;;;;;;;;22.30;59.00;;;;;;1619974;73;806;-70
2023/05/03 00:11:22;;;;;;;;;;;22.30;59.00;;;;;;1602260;73;1182;-71
2023/05/03 00:13:24;;;;;;;;;;;22.30;59.00;;;;;;1597923;73;675;-70
2023/05/03 00:15:26;;;;;;;;;;;22.40;59.00;;;;;;1613838;73;789;-70
2023/05/03 00:17:27;;;;;;;;;;;22.40;58.90;;;;;;1603891;73;1485;-69
2023/05/03 00:19:32;;;;;;;;;;;22.30;58.40;;;;;;1605629;73;776;-69
2023/05/03 00:21:33;;;;;;;;;;;22.50;59.00;;;;;;1602652;73;1593;-69
2023/05/03 00:23:35;;;;;;;;;;;22.40;59.20;;;;;;1603209;73;747;-68
2023/05/03 00:25:37;;;;;;;;;;;22.40;59.00;;;;;;1598535;73;1935;-69
2023/05/03 00:27:39;;;;;;;;;;;22.40;59.10;;;;;;1597939;73;662;-68
2023/05/03 00:29:40;;;;;;;;;;;22.40;59.10;;;;;;1597724;73;728;-69
2023/05/03 00:31:45;;;;;;;;;;;22.30;59.00;;;;;;1598300;73;1414;-69
2023/05/03 00:33:47;;;;;;;;;;;22.30;58.90;;;;;;1602970;73;626;-70
2023/05/03 00:35:49;;;;;;;;;;;22.40;58.90;;;;;;1619808;73;705;-70
2023/05/03 00:37:51;;;;;;;;;;;22.30;59.00;;;;;;1603521;73;640;-68
2023/05/03 00:39:53;;;;;;;;;;;22.40;58.50;;;;;;1605615;73;787;-69
2023/05/03 00:41:57;;;;;;;;;;;22.30;59.10;;;;;;1605137;73;1147;-70
2023/05/03 00:43:59;;;;;;;;;;;22.30;59.20;;;;;;1599676;73;1917;-70
2023/05/03 00:46:05;;;;;;;;;;;22.30;59.60;;;;;;1608996;73;1573;-70
2023/05/03 00:48:07;;;;;;;;;;;22.30;59.60;;;;;;1605278;73;651;-68
2023/05/03 00:50:10;;;;;;;;;;;22.20;59.60;;;;;;1602395;73;1151;-69
2023/05/03 00:52:12;;;;;;;;;;;22.20;59.80;;;;;;1603976;73;778;-69
2023/05/03 00:54:14;;;;;;;;;;;22.20;59.90;;;;;;1612535;73;817;-69
2023/05/03 00:56:22;;;;;;;;;;;22.20;59.70;;;;;;1598584;73;799;-67
2023/05/03 00:58:21;;;;;;;;;;;22.20;59.50;;;;;;1597319;73;1398;-67
2023/05/03 01:00:23;;;;;;;;;;;22.20;59.30;;;;;;1597799;73;1164;-68
2023/05/03 01:02:25;;;;;;;;;;;22.30;59.30;;;;;;1598928;73;752;-68
2023/05/03 01:04:27;;;;;;;;;;;22.40;59.20;;;;;;1602004;73;1948;-68
2023/05/03 01:06:40;;;;;;;;;;;22.30;59.10;;;;;;1612336;73;752;-68
2023/05/03 01:08:49;;;;;;;;;;;22.40;59.00;;;;;;1599703;73;738;-68
2023/05/03 01:10:53;;;;;;;;;;;22.30;58.90;;;;;;1604461;73;1169;-68
2023/05/03 01:12:59;;;;;;;;;;;22.40;58.90;;;;;;1617359;73;1277;-68
2023/05/03 01:15:08;;;;;;;;;;;22.40;58.90;;;;;;1608657;73;1622;-67
2023/05/03 01:17:11;;;;;;;;;;;22.30;58.40;;;;;;1611639;73;759;-68
2023/05/03 01:19:14;;;;;;;;;;;22.30;58.90;;;;;;1603292;73;1512;-68
2023/05/03 01:21:17;;;;;;;;;;;22.40;59.40;;;;;;1614207;73;1238;-70
2023/05/03 01:23:23;;;;;;;;;;;22.40;59.30;;;;;;1611385;73;737;-69
2023/05/03 01:25:28;;;;;;;;;;;22.30;59.60;;;;;;1597810;73;1927;-68
2023/05/03 01:27:30;;;;;;;;;;;22.30;59.70;;;;;;1597954;73;1446;-68
2023/05/03 01:29:32;;;;;;;;;;;22.30;59.60;;;;;;1597782;73;779;-70
2023/05/03 01:31:41;;;;;;;;;;;22.20;59.30;;;;;;1597929;73;1171;-69
2023/05/03 01:33:48;;;;;;;;;;;22.30;59.30;;;;;;1607214;73;775;-71
2023/05/03 01:35:52;;;;;;;;;;;22.30;59.20;;;;;;1597164;73;1589;-70
2023/05/03 01:37:55;;;;;;;;;;;22.30;59.00;;;;;;1599499;73;737;-70
2023/05/03 01:40:00;;;;;;;;;;;22.40;58.80;;;;;;1601446;73;879;-68
2023/05/03 01:42:03;;;;;;;;;;;22.50;58.50;;;;;;1599322;73;1476;-70
2023/05/03 01:44:05;;;;;;;;;;;22.40;58.50;;;;;;1607466;73;713;-69
2023/05/03 01:46:07;;;;;;;;;;;22.50;58.60;;;;;;1603891;73;1941;-71
2023/05/03 01:48:10;;;;;;;;;;;22.40;59.00;;;;;;1599095;73;681;-70
2023/05/03 01:50:11;;;;;;;;;;;22.30;59.00;;;;;;1607410;73;1138;-71
2023/05/03 01:52:13;;;;;;;;;;;22.40;58.90;;;;;;1603337;73;770;-71
2023/05/03 01:54:15;;;;;;;;;;;22.40;58.50;;;;;;1598256;73;748;-70
2023/05/03 01:56:17;;;;;;;;;;;22.40;58.40;;;;;;1597794;73;1556;-69
2023/05/03 01:58:19;;;;;;;;;;;22.40;58.30;;;;;;1597998;73;760;-68
2023/05/03 02:00:21;;;;;;;;;;;22.50;59.00;;;;;;1603245;73;1187;-68
2023/05/03 02:02:23;;;;;;;;;;;22.40;58.40;;;;;;1609531;73;748;-69
2023/05/03 02:04:25;;;;;;;;;;;22.40;58.20;;;;;;1601409;73;1932;-69
2023/05/03 02:06:27;;;;;;;;;;;22.40;58.20;;;;;;1598657;73;737;-69
2023/05/03 02:08:28;;;;;;;;;;;22.40;58.10;;;;;;1604023;73;749;-69
2023/05/03 02:10:30;;;;;;;;;;;22.40;58.00;;;;;;1603623;73;1179;-70
2023/05/03 02:12:32;;;;;;;;;;;22.40;58.20;;;;;;1607537;73;687;-70
2023/05/03 02:14:34;;;;;;;;;;;22.40;58.20;;;;;;1599918;73;689;-69
2023/05/03 02:16:36;;;;;;;;;;;22.40;58.20;;;;;;1611947;73;777;-68
2023/05/03 02:18:38;;;;;;;;;;;22.40;58.00;;;;;;1607401;73;751;-69
2023/05/03 02:20:40;;;;;;;;;;;22.50;58.10;;;;;;1597827;73;1266;-70
2023/05/03 02:22:42;;;;;;;;;;;22.50;58.10;;;;;;1574493;75;1467;-69
2023/05/03 02:24:44;;;;;;;;;;;22.50;58.10;;;;;;1600754;73;1944;-68
2023/05/03 02:26:46;;;;;;;;;;;22.50;58.00;;;;;;1617898;73;746;-68
2023/05/03 02:28:47;;;;;;;;;;;22.40;57.80;;;;;;1607321;73;752;-67
2023/05/03 02:30:49;;;;;;;;;;;22.40;58.00;;;;;;1601552;73;1187;-68
2023/05/03 02:32:51;;;;;;;;;;;22.40;57.90;;;;;;1602018;73;768;-68
2023/05/03 02:34:53;;;;;;;;;;;22.50;57.90;;;;;;1610272;73;701;-68
2023/05/03 02:36:55;;;;;;;;;;;22.50;57.90;;;;;;1604485;73;1472;-68
2023/05/03 02:38:57;;;;;;;;;;;22.50;57.90;;;;;;1599647;73;796;-67
2023/05/03 02:40:59;;;;;;;;;;;22.50;57.90;;;;;;1599345;73;1175;-68
2023/05/03 02:43:02;;;;;;;;;;;22.40;57.90;;;;;;1605009;73;647;-70
2023/05/03 02:45:04;;;;;;;;;;;22.50;58.10;;;;;;1603523;73;1929;-67
2023/05/03 02:47:06;;;;;;;;;;;22.50;58.10;;;;;;1600705;73;703;-67
2023/05/03 02:49:08;;;;;;;;;;;22.50;58.10;;;;;;1599960;73;772;-67
2023/05/03 02:51:10;;;;;;;;;;;22.50;58.30;;;;;;1599852;73;1563;-68
2023/05/03 02:53:12;;;;;;;;;;;22.50;57.90;;;;;;1598116;73;790;-69
2023/05/03 02:55:14;;;;;;;;;;;22.50;58.00;;;;;;1597746;73;753;-68
2023/05/03 02:57:16;;;;;;;;;;;22.40;57.70;;;;;;1598018;73;739;-68
2023/05/03 02:59:17;;;;;;;;;;;22.50;58.00;;;;;;1597978;73;735;-68
2023/05/03 03:01:19;;;;;;;;;;;22.50;58.40;;;;;;1598292;73;1217;-69
2023/05/03 03:03:21;;;;;;;;;;;22.50;58.40;;;;;;1569017;75;739;-69
2023/05/03 03:05:23;;;;;;;;;;;22.50;58.30;;;;;;1600904;73;1943;-69
2023/05/03 03:07:25;;;;;;;;;;;22.50;59.00;;;;;;1593482;73;745;-70
2023/05/03 03:09:27;;;;;;;;;;;22.40;59.00;;;;;;1599102;73;761;-69
2023/05/03 03:11:29;;;;;;;;;;;22.40;59.00;;;;;;1589993;73;1172;-67
2023/05/03 03:13:31;;;;;;;;;;;22.40;59.00;;;;;;1593410;73;730;-68
2023/05/03 03:15:33;;;;;;;;;;;22.40;58.80;;;;;;1591109;73;697;-69
2023/05/03 03:17:38;;;;;;;;;;;22.30;59.20;;;;;;1598185;73;732;-70
2023/05/03 03:19:38;;;;;;;;;;;22.40;59.00;;;;;;1600763;73;1423;-70
2023/05/03 03:21:40;;;;;;;;;;;22.30;59.10;;;;;;1591233;73;1259;-70
2023/05/03 03:23:42;;;;;;;;;;;22.30;59.50;;;;;;1595336;73;748;-71
2023/05/03 03:25:44;;;;;;;;;;;22.20;59.40;;;;;;1601894;73;1937;-69
2023/05/03 03:27:46;;;;;;;;;;;22.30;59.60;;;;;;1592746;73;780;-68
2023/05/03 03:29:48;;;;;;;;;;;22.20;59.40;;;;;;1589717;73;725;-70
2023/05/03 03:31:50;;;;;;;;;;;22.20;59.40;;;;;;1591306;73;1177;-68
2023/05/03 03:33:52;;;;;;;;;;;22.30;59.30;;;;;;1591692;73;1465;-68
2023/05/03 03:35:53;;;;;;;;;;;22.20;59.30;;;;;;1591865;73;803;-68
2023/05/03 03:37:55;;;;;;;;;;;22.30;59.50;;;;;;1589665;73;804;-68
2023/05/03 03:39:57;;;;;;;;;;;22.20;59.60;;;;;;1590083;73;675;-67
2023/05/03 03:41:59;;;;;;;;;;;22.10;59.60;;;;;;1589797;73;1066;-68
2023/05/03 03:44:01;;;;;;;;;;;22.20;59.40;;;;;;1608649;73;681;-68
2023/05/03 03:46:03;;;;;;;;;;;22.20;59.50;;;;;;1590526;73;1924;-68
2023/05/03 03:48:05;;;;;;;;;;;22.20;59.30;;;;;;1594236;73;1453;-68
2023/05/03 03:50:07;;;;;;;;;;;22.20;59.30;;;;;;1599871;73;1228;-69
2023/05/03 03:52:09;;;;;;;;;;;22.20;59.20;;;;;;1604070;73;760;-69
2023/05/03 03:54:11;;;;;;;;;;;22.30;59.20;;;;;;1591232;73;808;-69
2023/05/03 03:56:13;;;;;;;;;;;22.20;59.10;;;;;;1589873;73;775;-69
2023/05/03 03:58:14;;;;;;;;;;;22.20;59.30;;;;;;1597075;73;781;-67
2023/05/03 04:00:16;;;;;;;;;;;22.20;59.30;;;;;;1598355;73;1159;-68
2023/05/03 04:02:18;;;;;;;;;;;22.30;59.30;;;;;;1589930;73;1489;-67
2023/05/03 04:04:20;;;;;;;;;;;22.20;59.20;;;;;;1594924;73;736;-68
2023/05/03 04:06:22;;;;;;;;;;;22.20;59.10;;;;;;1590458;73;1953;-68
2023/05/03 04:08:24;;;;;;;;;;;22.30;59.10;;;;;;1594040;73;811;-67
2023/05/03 04:12:30;;;;;;;;;;;22.30;59.10;;;;;;1520367;76;539;-71
2023/05/03 04:14:32;;;;;;;;;;;22.40;58.90;;;;;;1524700;76;612;-69
2023/05/03 04:16:34;;;;;;;;;;;22.40;58.90;;;;;;1524685;77;1459;-69
2023/05/03 04:18:36;;;;;;;;;;;22.50;58.50;;;;;;1519211;77;762;-69
2023/05/03 04:20:38;;;;;;;;;;;22.50;58.40;;;;;;1516944;77;1263;-70
2023/05/03 04:22:40;;;;;;;;;;;22.40;58.40;;;;;;1516345;77;747;-69
2023/05/03 04:24:42;;;;;;;;;;;22.30;58.40;;;;;;1513263;77;708;-70
2023/05/03 04:26:44;;;;;;;;;;;22.40;58.40;;;;;;1522540;77;1932;-69
2023/05/03 04:28:46;;;;;;;;;;;22.30;58.40;;;;;;1520169;77;787;-69
2023/05/03 04:30:48;;;;;;;;;;;22.40;58.40;;;;;;1515220;77;1448;-69
2023/05/03 04:32:52;;;;;;;;;;;22.40;58.40;;;;;;1514986;77;778;-71
2023/05/03 04:34:54;;;;;;;;;;;22.40;58.40;;;;;;1518633;77;1605;-70
2023/05/03 04:36:56;;;;;;;;;;;22.30;58.50;;;;;;1517200;77;806;-70
2023/05/03 04:38:58;;;;;;;;;;;22.30;59.10;;;;;;1515269;77;793;-70
2023/05/03 04:40:59;;;;;;;;;;;22.30;59.10;;;;;;1523339;77;1135;-69
2023/05/03 04:43:02;;;;;;;;;;;22.20;59.10;;;;;;1527824;77;744;-70
2023/05/03 04:45:08;;;;;;;;;;;22.20;59.10;;;;;;1517535;77;1549;-70
2023/05/03 04:47:07;;;;;;;;;;;22.20;59.30;;;;;;1521709;77;1944;-69
2023/05/03 04:49:09;;;;;;;;;;;22.20;59.10;;;;;;1521049;77;700;-69
2023/05/03 04:51:11;;;;;;;;;;;22.20;59.00;;;;;;1517981;77;1249;-70
2023/05/03 04:53:13;;;;;;;;;;;22.20;59.10;;;;;;1517290;77;770;-69
2023/05/03 04:55:15;;;;;;;;;;;22.10;59.30;;;;;;1522863;77;778;-69
2023/05/03 04:57:17;;;;;;;;;;;22.20;59.10;;;;;;1530166;77;1417;-69
2023/05/03 04:59:19;;;;;;;;;;;22.20;59.10;;;;;;1519976;77;767;-69
2023/05/03 05:01:26;;;;;;;;;;;22.20;59.00;;;;;;1517789;77;1186;-67
2023/05/03 05:03:27;;;;;;;;;;;22.30;59.20;;;;;;1506429;77;1602;-68
2023/05/03 05:05:29;;;;;;;;;;;22.30;59.20;;;;;;1522765;77;809;-70
2023/05/03 05:07:31;;;;;;;;;;;22.30;59.10;;;;;;1521311;77;1978;-68
2023/05/03 05:09:32;;;;;;;;;;;22.20;59.10;;;;;;1509166;77;750;-66
2023/05/03 05:11:34;;;;;;;;;;;22.20;59.60;;;;;;1512234;77;1422;-66
2023/05/03 05:13:36;;;;;;;;;;;22.30;59.50;;;;;;1495675;78;684;-65
2023/05/03 05:15:38;;;;;;;;;;;22.20;59.30;;;;;;1521259;77;751;-65
2023/05/03 05:17:40;;;;;;;;;;;22.20;59.30;;;;;;1516997;77;666;-65
2023/05/03 05:19:42;;;;;;;;;;;22.20;59.20;;;;;;1523165;77;704;-65
2023/05/03 05:21:44;;;;;;;;;;;22.20;59.10;;;;;;1519827;77;1182;-66
2023/05/03 05:23:46;;;;;;;;;;;22.20;59.00;;;;;;1521332;77;798;-66
2023/05/03 05:25:48;;;;;;;;;;;22.20;58.90;;;;;;1525198;77;1930;-68
2023/05/03 05:27:50;;;;;;;;;;;22.20;58.80;;;;;;1516580;77;773;-66
2023/05/03 05:29:52;;;;;;;;;;;22.20;58.80;;;;;;1511475;77;809;-66
2023/05/03 05:31:53;;;;;;;;;;;22.20;58.90;;;;;;1525968;77;1218;-65
2023/05/03 05:33:55;;;;;;;;;;;22.20;58.80;;;;;;1528048;77;798;-66
2023/05/03 05:35:57;;;;;;;;;;;22.20;58.70;;;;;;1520936;77;654;-63
2023/05/03 05:37:59;;;;;;;;;;;22.20;58.40;;;;;;1519192;77;775;-65
2023/05/03 05:40:01;;;;;;;;;;;22.30;58.40;;;;;;1519938;77;1422;-67
2023/05/03 05:42:03;;;;;;;;;;;22.30;58.40;;;;;;1521547;77;1152;-66
2023/05/03 05:44:06;;;;;;;;;;;22.30;58.40;;;;;;1517136;77;769;-65
2023/05/03 05:46:07;;;;;;;;;;;22.30;58.30;;;;;;1516907;77;1924;-66
2023/05/03 05:48:09;;;;;;;;;;;22.20;58.10;;;;;;1525950;77;702;-66
2023/05/03 05:50:11;;;;;;;;;;;22.20;58.00;;;;;;1519126;77;730;-66
2023/05/03 05:52:13;;;;;;;;;;;22.30;58.10;;;;;;1515973;77;1147;-66
2023/05/03 05:54:15;;;;;;;;;;;22.20;58.00;;;;;;1516056;77;1445;-67
2023/05/03 05:56:17;;;;;;;;;;;22.20;57.80;;;;;;1525938;77;793;-66
2023/05/03 05:58:19;;;;;;;;;;;22.30;57.90;;;;;;1518376;77;758;-65
2023/05/03 06:00:23;;;;;;;;;;;22.40;57.80;;;;;;1522951;77;742;-66
2023/05/03 06:02:25;;;;;;;;;;;22.40;57.80;;;;;;1523410;77;1155;-66
2023/05/03 06:04:27;;;;;;;;;;;22.40;57.70;;;;;;1522349;77;757;-67
2023/05/03 06:06:30;;;;;;;;;;;22.40;57.60;;;;;;1511494;77;1938;-68
2023/05/03 06:08:32;;;;;;;;;;;22.40;57.60;;;;;;1512956;77;1322;-66
2023/05/03 06:10:34;;;;;;;;;;;22.30;57.50;;;;;;1513613;77;1183;-67
2023/05/03 06:12:35;;;;;;;;;;;22.30;57.50;;;;;;1516919;77;743;-66
2023/05/03 06:14:37;;;;;;;;;;;22.30;57.50;;;;;;1517986;77;784;-67
2023/05/03 06:16:40;;;;;;;;;;;22.30;57.60;;;;;;1519118;77;647;-67
2023/05/03 06:18:41;;;;;;;;;;;22.30;57.60;;;;;;1518493;77;690;-66
2023/05/03 06:20:43;;;;;;;;;;;22.30;57.50;;;;;;1524710;77;1279;-65
2023/05/03 06:22:45;;;;;;;;;;;22.20;57.30;;;;;;1514677;77;1431;-65
2023/05/03 06:24:47;;;;;;;;;;;22.20;57.50;;;;;;1517438;77;1091;-67
2023/05/03 06:26:49;;;;;;;;;;;22.20;57.40;;;;;;1513066;77;1934;-67
2023/05/03 06:28:51;;;;;;;;;;;22.20;57.30;;;;;;1509890;77;1181;-66
2023/05/03 06:30:53;;;;;;;;;;;22.20;57.30;;;;;;1508461;77;1251;-66
2023/05/03 06:32:54;;;;;;;;;;;22.30;57.20;;;;;;1515291;77;1400;-66
2023/05/03 06:34:58;;;;;;;;;;;22.40;57.10;;;;;;1513091;77;1201;-64
2023/05/03 06:37:00;;;;;;;;;;;22.30;57.00;;;;;;1514510;77;1336;-66
2023/05/03 06:39:03;;;;;;;;;;;22.30;57.00;;;;;;1516371;77;1252;-66
2023/05/03 06:41:05;;;;;;;;;;;22.30;56.90;;;;;;1521829;77;1245;-63
2023/05/03 06:43:07;;;;;;;;;;;22.40;56.80;;;;;;1513791;77;1224;-66
2023/05/03 06:45:09;;;;;;;;;;;22.30;56.90;;;;;;1506750;77;1209;-66
2023/05/03 06:47:11;;;;;;;;;;;22.30;56.90;;;;;;1515099;77;1949;-66
2023/05/03 06:49:13;;;;;;;;;;;22.40;56.80;;;;;;1517596;77;1221;-66
2023/05/03 06:51:15;;;;;;;;;;;22.40;56.80;;;;;;1512044;77;1313;-67
2023/05/03 06:53:17;;;;;;;;;;;22.40;56.80;;;;;;1511227;77;1225;-66
2023/05/03 06:55:18;;;;;;;;;;;22.40;56.80;;;;;;1514086;77;1229;-65
2023/05/03 06:57:21;;;;;;;;;;;22.40;56.80;;;;;;1515809;77;1367;-65
2023/05/03 06:59:23;;;;;;;;;;;22.30;56.80;;;;;;1517900;77;1382;-66
2023/05/03 07:01:25;;;;;;;;;;;22.40;56.70;;;;;;1516525;77;1220;-65
2023/05/03 07:03:27;;;;;;;;;;;22.30;56.70;;;;;;1520733;77;1068;-66
2023/05/03 07:05:29;;;;;;;;;;;22.30;56.60;;;;;;1519077;77;1353;-66
2023/05/03 07:07:30;;;;;;;;;;;22.40;56.70;;;;;;1512721;77;1952;-66
2023/05/03 07:09:32;;;;;;;;;;;22.40;56.60;;;;;;1510192;77;1391;-67
2023/05/03 07:11:36;;;;;;;;;;;22.40;56.60;;;;;;1514821;77;1189;-66
2023/05/03 07:13:37;;;;;;;;;;;22.30;56.60;;;;;;1507503;77;1105;-63
2023/05/03 07:15:39;;;;;;;;;;;22.40;56.50;;;;;;1516130;77;1231;-65
2023/05/03 07:17:41;;;;;;;;;;;22.40;56.50;;;;;;1520249;77;1241;-66
2023/05/03 07:19:43;;;;;;;;;;;22.30;56.60;;;;;;1524133;77;1248;-66
2023/05/03 07:21:45;;;;;;;;;;;22.30;56.60;;;;;;1518575;77;1443;-67
2023/05/03 07:23:47;;;;;;;;;;;22.40;56.70;;;;;;1517544;77;1242;-65
2023/05/03 07:25:49;;;;;;;;;;;22.40;56.60;;;;;;1511091;77;1186;-66
2023/05/03 07:27:51;;;;;;;;;;;22.30;56.60;;;;;;1509816;77;1936;-66
2023/05/03 07:29:53;;;;;;;;;;;22.30;56.50;;;;;;1521817;77;1363;-66
2023/05/03 07:31:55;;;;;;;;;;;22.30;56.50;;;;;;1508450;77;1204;-65
2023/05/03 07:33:57;;;;;;;;;;;22.30;56.50;;;;;;1512304;77;1165;-63
2023/05/03 07:35:59;;;;;;;;;;;22.30;56.50;;;;;;1515282;77;1126;-66
2023/05/03 07:38:01;;;;;;;;;;;22.30;56.50;;;;;;1512668;77;1426;-66
2023/05/03 07:40:05;;;;;;;;;;;22.30;56.50;;;;;;1506593;77;1228;-67
2023/05/03 07:42:07;;;;;;;;;;;22.30;56.50;;;;;;1508488;77;1246;-66
2023/05/03 07:44:09;;;;;;;;;;;22.30;56.50;;;;;;1506497;77;1215;-66
2023/05/03 07:46:11;;;;;;;;;;;22.30;56.50;;;;;;1519495;77;1371;-66
2023/05/03 07:48:13;;;;;;;;;;;22.30;56.50;;;;;;1516924;77;1947;-66
2023/05/03 07:50:14;;;;;;;;;;;22.20;56.50;;;;;;1504406;77;1229;-66
2023/05/03 07:52:16;;;;;;;;;;;22.30;56.50;;;;;;1512111;77;1362;-66
2023/05/03 07:54:18;;;;;;;;;;;22.20;56.40;;;;;;1513197;77;1243;-66
2023/05/03 07:56:20;;;;;;;;;;;22.30;56.50;;;;;;1509670;77;1413;-66
2023/05/03 07:58:22;;;;;;;;;;;22.20;56.40;;;;;;1509445;77;1208;-66
2023/05/03 08:00:26;;;;;;;;;;;22.20;56.50;;;;;;1516300;77;1232;-66
2023/05/03 08:02:28;;;;;;;;;;;22.20;56.50;;;;;;1512562;77;1442;-66
2023/05/03 08:04:29;;;;;;;;;;;22.20;56.50;;;;;;1521261;77;1364;-66
2023/05/03 08:06:32;;;;;;;;;;;22.20;56.50;;;;;;1516714;77;1133;-66
2023/05/03 08:08:35;;;;;;;;;;;22.30;56.60;;;;;;1518176;77;1941;-71
2023/05/03 08:10:37;;;;;;;;;;;22.30;56.50;;;;;;1508731;77;1191;-67
2023/05/03 08:12:39;;;;;;;;;;;22.30;56.50;;;;;;1522921;77;1323;-66
2023/05/03 08:14:41;;;;;;;;;;;22.20;56.40;;;;;;1515620;77;1349;-67
2023/05/03 08:16:42;;;;;;;;;;;22.20;56.50;;;;;;1518669;77;1398;-68
2023/05/03 08:18:45;;;;;;;;;;;22.20;56.50;;;;;;1506067;77;1266;-69
2023/05/03 08:20:48;;;;;;;;;;;22.20;56.80;;;;;;1514259;77;1236;-70
2023/05/03 08:22:50;;;;;;;;;;;22.10;56.50;;;;;;1509865;77;1211;-69
2023/05/03 08:24:52;;;;;;;;;;;22.10;56.20;;;;;;1513897;77;1267;-70
2023/05/03 08:26:54;;;;;;;;;;;22.10;55.60;;;;;;1516594;77;1927;-69
2023/05/03 08:28:56;;;;;;;;;;;22.00;55.70;;;;;;1513269;77;1232;-71
2023/05/03 08:30:58;;;;;;;;;;;22.10;55.80;;;;;;1517539;77;1447;-67
2023/05/03 08:33:00;;;;;;;;;;;22.00;55.40;;;;;;1518528;77;1385;-68
2023/05/03 08:35:05;;;;;;;;;;;22.00;55.40;;;;;;1519585;77;1144;-68
2023/05/03 08:37:06;;;;;;;;;;;22.00;55.20;;;;;;1514519;77;1539;-68
2023/05/03 08:39:09;;;;;;;;;;;22.10;54.90;;;;;;1507239;77;1117;-67
2023/05/03 08:41:15;;;;;;;;;;;22.00;54.70;;;;;;1514664;77;1229;-68
2023/05/03 08:43:19;;;;;;;;;;;22.10;54.70;;;;;;1514900;77;1582;-67
2023/05/03 08:45:21;;;;;;;;;;;22.00;54.60;;;;;;1506382;77;1350;-67
2023/05/03 08:47:23;;;;;;;;;;;22.10;54.70;;;;;;1512829;77;1942;-67
2023/05/03 08:49:25;;;;;;;;;;;22.10;54.30;;;;;;1507099;77;1372;-66
2023/05/03 08:51:27;;;;;;;;;;;22.00;54.20;;;;;;1514460;77;1235;-68
2023/05/03 08:53:29;;;;;;;;;;;22.10;54.10;;;;;;1514666;77;1327;-67
2023/05/03 08:55:31;;;;;;;;;;;22.10;54.10;;;;;;1521294;77;1191;-67
2023/05/03 08:57:34;;;;;;;;;;;22.10;53.80;;;;;;1515988;77;1207;-66
2023/05/03 08:59:37;;;;;;;;;;;22.10;53.80;;;;;;1510016;77;1449;-67
2023/05/03 09:01:39;;;;;;;;;;;22.10;53.60;;;;;;1506939;77;1720;-67
2023/05/03 09:03:46;;;;;;;;;;;22.10;53.60;;;;;;1519183;77;1446;-67
2023/05/03 09:05:45;;;;;;;;;;;22.20;53.20;;;;;;1493600;78;1280;-67
2023/05/03 09:08:06;;;;;;;;;;;22.10;53.10;;;;;;1519808;77;1949;-65
2023/05/03 09:10:09;;;;;;;;;;;22.10;53.10;;;;;;1516406;77;1228;-66
2023/05/03 09:12:11;;;;;;;;;;;22.10;53.10;;;;;;1507981;77;1219;-67
2023/05/03 09:14:13;;;;;;;;;;;22.00;53.00;;;;;;1511284;77;1459;-67
2023/05/03 09:16:23;;;;;;;;;;;22.00;53.10;;;;;;1506167;77;1236;-67
2023/05/03 09:18:25;;;;;;;;;;;22.00;52.90;;;;;;1508606;77;1326;-67
2023/05/03 09:20:37;;;;;;;;;;;22.00;52.90;;;;;;1516992;77;1406;-66
2023/05/03 09:22:39;;;;;;;;;;;22.00;52.80;;;;;;1512859;77;1179;-67
2023/05/03 09:24:43;;;;;;;;;;;22.10;52.90;;;;;;1490361;78;1167;-68
2023/05/03 09:26:45;;;;;;;;;;;22.00;52.90;;;;;;1514768;77;1383;-68
2023/05/03 09:28:47;;;;;;;;;;;22.10;52.80;;;;;;1513052;77;1943;-67
2023/05/03 09:30:49;;;;;;;;;;;22.00;52.50;;;;;;1506546;77;1183;-67
2023/05/03 09:32:52;;;;;;;;;;;22.00;52.50;;;;;;1511991;77;1293;-68
2023/05/03 09:34:53;;;;;;;;;;;22.00;52.50;;;;;;1513552;77;1264;-67
2023/05/03 09:36:55;;;;;;;;;;;22.00;52.50;;;;;;1492734;78;1268;-68
2023/05/03 09:38:57;;;;;;;;;;;22.00;52.40;;;;;;1502560;77;1217;-65
2023/05/03 09:41:00;;;;;;;;;;;22.00;52.10;;;;;;1509965;77;1466;-67
2023/05/03 09:43:10;;;;;;;;;;;22.00;52.30;;;;;;1516875;77;1323;-67
2023/05/03 09:45:09;;;;;;;;;;;22.00;52.10;;;;;;1508054;77;1555;-67
2023/05/03 09:47:11;;;;;;;;;;;22.00;52.10;;;;;;1519369;77;1213;-66
2023/05/03 09:49:13;;;;;;;;;;;22.00;52.00;;;;;;1511443;77;1948;-67
2023/05/03 09:51:15;;;;;;;;;;;22.00;52.00;;;;;;1513274;77;1239;-68
2023/05/03 09:53:18;;;;;;;;;;;22.00;52.10;;;;;;1512915;77;1197;-67
2023/05/03 09:55:20;;;;;;;;;;;22.00;52.10;;;;;;1509308;77;1416;-67
2023/05/03 09:57:22;;;;;;;;;;;21.90;52.20;;;;;;1515836;77;1232;-68
2023/05/03 09:59:23;;;;;;;;;;;21.90;52.30;;;;;;1515459;77;1140;-67
2023/05/03 10:01:25;;;;;;;;;;;21.90;52.40;;;;;;1513267;77;1221;-68
2023/05/03 10:03:28;;;;;;;;;;;21.90;52.30;;;;;;1507958;77;1126;-68
2023/05/03 10:05:31;;;;;;;;;;;21.90;52.20;;;;;;1519558;77;1099;-67
2023/05/03 10:07:32;;;;;;;;;;;22.00;52.10;;;;;;1515661;77;1931;-67
2023/05/03 10:09:42;;;;;;;;;;;21.90;52.20;;;;;;1511621;77;1368;-67
2023/05/03 10:11:46;;;;;;;;;;;22.00;52.10;;;;;;1530949;75;2229;-65
2023/05/03 10:13:47;;;;;;;;;;;22.00;52.10;;;;;;1549361;74;1229;-66
2023/05/03 10:15:51;;;;;;;;;;;22.00;52.10;;;;;;1513765;76;1143;-65
2023/05/03 10:17:53;;;;;;;;;;;22.00;52.20;;;;;;1520522;76;1220;-65
2023/05/03 10:20:06;;;;;;;;;;;22.00;52.10;;;;;;1523650;76;1131;-67
2023/05/03 10:22:09;;;;;;;;;;;22.00;52.10;;;;;;1526303;75;1350;-65
2023/05/03 10:24:12;;;;;;;;;;;21.90;52.20;;;;;;1549447;75;1435;-66
2023/05/03 10:26:14;;;;;;;;;;;21.90;52.30;;;;;;1545930;75;1237;-65
2023/05/03 10:28:16;;;;;;;;;;;21.90;52.10;;;;;;1533457;75;1982;-65
2023/05/03 10:30:31;;;;;;;;;;;21.90;52.40;;;;;;1546435;75;1217;-65
2023/05/03 10:32:42;;;;;;;;;;;21.90;52.60;;;;;;1544471;75;1261;-64
2023/05/03 10:34:43;;;;;;;;;;;22.00;52.60;;;;;;1535996;75;1284;-65
2023/05/03 10:36:49;;;;;;;;;;;22.00;53.20;;;;;;1551215;75;1210;-65
2023/05/03 10:38:50;;;;;;;;;;;22.10;53.00;;;;;;1530631;75;1216;-65
2023/05/03 10:40:53;;;;;;;;;;;22.10;52.80;;;;;;1524272;76;1216;-64
2023/05/03 10:42:55;;;;;;;;;;;22.10;52.80;;;;;;1546120;75;1223;-68
2023/05/03 10:44:59;;;;;;;;;;;22.20;52.80;;;;;;1526642;75;1201;-65
2023/05/03 10:47:10;;;;;;;;;;;22.10;52.90;;;;;;1517096;76;758;-66
2023/05/03 10:49:19;;;;;;;;;;;22.20;52.90;;;;;;1552490;75;1951;-65
2023/05/03 10:51:29;;;;;;;;;;;22.20;52.90;;;;;;1579297;73;1443;-66
2023/05/03 10:53:35;;;;;;;;;;;22.20;52.90;;;;;;1584287;74;746;-65
2023/05/03 10:55:37;;;;;;;;;;;22.20;53.00;;;;;;1582103;74;674;-66
2023/05/03 10:57:40;;;;;;;;;;;22.30;53.10;;;;;;1587289;74;744;-65
2023/05/03 10:59:45;;;;;;;;;;;22.30;53.10;;;;;;1560897;75;798;-66
2023/05/03 11:01:49;;;;;;;;;;;22.30;53.10;;;;;;1551375;75;1166;-65
2023/05/03 11:03:52;;;;;;;;;;;22.30;53.10;;;;;;1563789;75;748;-65
2023/05/03 11:05:54;;;;;;;;;;;22.30;53.10;;;;;;1562447;75;1434;-66
2023/05/03 11:08:09;;;;;;;;;;;22.30;53.10;;;;;;1555295;75;1937;-66
2023/05/03 11:10:17;;;;;;;;;;;22.30;53.10;;;;;;1547463;75;1025;-66
2023/05/03 11:12:19;;;;;;;;;;;22.40;53.10;;;;;;1548712;75;1154;-67
2023/05/03 11:14:21;;;;;;;;;;;22.30;53.10;;;;;;1546601;75;754;-65
2023/05/03 11:16:23;;;;;;;;;;;22.30;53.10;;;;;;1564555;75;742;-65
2023/05/03 11:18:26;;;;;;;;;;;22.40;53.10;;;;;;1571002;74;806;-66
2023/05/03 11:20:28;;;;;;;;;;;22.40;53.20;;;;;;1588178;74;1427;-66
2023/05/03 11:22:30;;;;;;;;;;;22.30;53.20;;;;;;1569936;74;1177;-65
2023/05/03 11:24:32;;;;;;;;;;;22.30;53.20;;;;;;1585261;74;638;-66
2023/05/03 11:26:37;;;;;;;;;;;22.40;53.40;;;;;;1585605;74;676;-66
2023/05/03 11:28:39;;;;;;;;;;;22.30;53.40;;;;;;1585763;74;1935;-65
2023/05/03 11:30:41;;;;;;;;;;;22.30;53.40;;;;;;1577492;74;766;-64
2023/05/03 11:32:43;;;;;;;;;;;22.30;53.60;;;;;;1589745;74;1119;-66
2023/05/03 11:34:45;;;;;;;;;;;22.30;53.90;;;;;;1561579;74;1455;-67
2023/05/03 11:36:48;;;;;;;;;;;22.30;53.90;;;;;;1565832;74;771;-67
2023/05/03 11:38:50;;;;;;;;;;;22.40;53.90;;;;;;1568134;74;800;-66
2023/05/03 11:40:51;;;;;;;;;;;22.30;53.80;;;;;;1568117;74;723;-64
2023/05/03 11:42:55;;;;;;;;;;;22.40;53.60;;;;;;1574653;74;1211;-66
2023/05/03 11:44:57;;;;;;;;;;;22.50;53.60;;;;;;1549546;74;945;-64
2023/05/03 11:46:59;;;;;;;;;;;22.50;53.60;;;;;;1544629;74;757;-64
2023/05/03 11:49:01;;;;;;;;;;;22.50;53.50;;;;;;1567338;74;1930;-69
2023/05/03 11:51:05;;;;;;;;;;;22.60;53.50;;;;;;1560409;74;1164;-65
2023/05/03 11:53:07;;;;;;;;;;;22.50;53.40;;;;;;1568149;74;1676;-65
2023/05/03 11:55:09;;;;;;;;;;;22.60;53.40;;;;;;1565198;74;762;-66
2023/05/03 11:57:12;;;;;;;;;;;22.60;53.50;;;;;;1561223;74;769;-66
2023/05/03 11:59:14;;;;;;;;;;;22.50;53.40;;;;;;1575518;74;621;-66
2023/05/03 12:01:16;;;;;;;;;;;22.60;53.40;;;;;;1568605;74;1498;-65
2023/05/03 12:03:23;;;;;;;;;;;22.60;53.40;;;;;;1566173;74;800;-65
2023/05/03 12:05:25;;;;;;;;;;;22.60;53.40;;;;;;1565969;74;1517;-67
2023/05/03 12:07:27;;;;;;;;;;;22.60;53.40;;;;;;1561199;74;826;-64
2023/05/03 12:09:29;;;;;;;;;;;22.50;53.50;;;;;;1565086;74;1931;-65